sensor_id;sensor_type;location;lat;lon;timestamp;P1;durP1;ratioP1;P2;durP2;ratioP2
53801;SDS011;39709;53.334;6.534;2023-02-03T00:01:27;3.07;;;0.50;;
53801;SDS011;39709;53.334;6.534;2023-02-03T00:03:53;3.37;;;0.40;;
53801;SDS011;39709;53.334;6.534;2023-02-03T00:06:18;3.73;;;1.00;;
53801;SDS011;39709;53.334;6.534;2023-02-03T00:08:44;4.87;;;0.40;;
53801;SDS011;39709;53.334;6.534;2023-02-03T00:11:10;2.42;;;0.52;;
53801;SDS011;39709;53.334;6.534;2023-02-03T00:13:36;3.58;;;0.65;;
53801;SDS011;39709;53.334;6.534;2023-02-03T00:16:01;4.17;;;0.57;;
53801;SDS011;39709;53.334;6.534;2023-02-03T00:18:27;2.35;;;0.40;;
53801;SDS011;39709;53.334;6.534;2023-02-03T00:20:53;2.10;;;0.40;;
53801;SDS011;39709;53.334;6.534;2023-02-03T00:23:18;1.95;;;0.40;;
53801;SDS011;39709;53.334;6.534;2023-02-03T00:25:44;2.70;;;0.60;;
53801;SDS011;39709;53.334;6.534;2023-02-03T00:28:10;4.70;;;0.50;;
53801;SDS011;39709;53.334;6.534;2023-02-03T00:30:36;5.50;;;0.70;;
53801;SDS011;39709;53.334;6.534;2023-02-03T00:33:02;2.67;;;0.50;;
53801;SDS011;39709;53.334;6.534;2023-02-03T00:35:28;2.50;;;0.50;;
53801;SDS011;39709;53.334;6.534;2023-02-03T00:37:55;2.25;;;0.50;;
53801;SDS011;39709;53.334;6.534;2023-02-03T00:40:22;5.20;;;0.50;;
53801;SDS011;39709;53.334;6.534;2023-02-03T00:42:50;1.98;;;0.40;;
53801;SDS011;39709;53.334;6.534;2023-02-03T00:45:15;3.53;;;0.70;;
53801;SDS011;39709;53.334;6.534;2023-02-03T00:47:41;4.10;;;0.80;;
53801;SDS011;39709;53.334;6.534;2023-02-03T00:50:07;6.07;;;0.60;;
53801;SDS011;39709;53.334;6.534;2023-02-03T00:52:34;4.20;;;0.60;;
53801;SDS011;39709;53.334;6.534;2023-02-03T00:55:00;3.97;;;0.57;;
53801;SDS011;39709;53.334;6.534;2023-02-03T00:57:26;4.50;;;0.63;;
53801;SDS011;39709;53.334;6.534;2023-02-03T00:59:52;5.13;;;0.80;;
53801;SDS011;39709;53.334;6.534;2023-02-03T01:02:19;3.47;;;0.50;;
53801;SDS011;39709;53.334;6.534;2023-02-03T01:04:45;5.60;;;0.80;;
53801;SDS011;39709;53.334;6.534;2023-02-03T01:07:10;2.17;;;0.30;;
53801;SDS011;39709;53.334;6.534;2023-02-03T01:09:36;5.50;;;0.70;;
53801;SDS011;39709;53.334;6.534;2023-02-03T01:12:03;3.40;;;0.40;;
53801;SDS011;39709;53.334;6.534;2023-02-03T01:14:29;2.92;;;0.63;;
53801;SDS011;39709;53.334;6.534;2023-02-03T01:16:55;6.27;;;0.50;;
53801;SDS011;39709;53.334;6.534;2023-02-03T01:19:21;3.60;;;0.63;;
53801;SDS011;39709;53.334;6.534;2023-02-03T01:21:47;3.22;;;0.57;;
53801;SDS011;39709;53.334;6.534;2023-02-03T01:24:13;3.37;;;0.60;;
53801;SDS011;39709;53.334;6.534;2023-02-03T01:26:39;6.10;;;0.70;;
53801;SDS011;39709;53.334;6.534;2023-02-03T01:29:05;4.53;;;0.75;;
53801;SDS011;39709;53.334;6.534;2023-02-03T01:31:32;2.10;;;0.45;;
53801;SDS011;39709;53.334;6.534;2023-02-03T01:34:01;2.30;;;0.47;;
53801;SDS011;39709;53.334;6.534;2023-02-03T01:36:28;4.40;;;0.63;;
53801;SDS011;39709;53.334;6.534;2023-02-03T01:38:55;3.17;;;0.60;;
53801;SDS011;39709;53.334;6.534;2023-02-03T01:41:22;4.13;;;0.65;;
53801;SDS011;39709;53.334;6.534;2023-02-03T01:43:51;3.22;;;0.63;;
53801;SDS011;39709;53.334;6.534;2023-02-03T01:46:23;4.40;;;0.63;;
53801;SDS011;39709;53.334;6.534;2023-02-03T01:51:40;5.13;;;0.60;;
53801;SDS011;39709;53.334;6.534;2023-02-03T01:54:08;4.20;;;0.50;;
53801;SDS011;39709;53.334;6.534;2023-02-03T01:56:38;8.15;;;0.77;;
53801;SDS011;39709;53.334;6.534;2023-02-03T01:59:06;4.03;;;0.70;;
53801;SDS011;39709;53.334;6.534;2023-02-03T02:01:32;3.85;;;0.57;;
53801;SDS011;39709;53.334;6.534;2023-02-03T02:04:00;5.68;;;1.00;;
53801;SDS011;39709;53.334;6.534;2023-02-03T02:06:30;4.82;;;0.80;;
53801;SDS011;39709;53.334;6.534;2023-02-03T02:08:56;7.47;;;0.90;;
53801;SDS011;39709;53.334;6.534;2023-02-03T02:11:25;6.95;;;1.10;;
53801;SDS011;39709;53.334;6.534;2023-02-03T02:13:51;6.30;;;0.60;;
53801;SDS011;39709;53.334;6.534;2023-02-03T02:25:43;4.20;;;0.70;;
53801;SDS011;39709;53.334;6.534;2023-02-03T02:28:32;3.33;;;0.65;;
53801;SDS011;39709;53.334;6.534;2023-02-03T02:33:49;2.93;;;0.60;;
53801;SDS011;39709;53.334;6.534;2023-02-03T02:36:25;2.22;;;0.40;;
53801;SDS011;39709;53.334;6.534;2023-02-03T02:41:41;7.32;;;0.88;;
53801;SDS011;39709;53.334;6.534;2023-02-03T02:46:56;4.83;;;0.60;;
53801;SDS011;39709;53.334;6.534;2023-02-03T02:52:15;3.38;;;0.57;;
53801;SDS011;39709;53.334;6.534;2023-02-03T02:54:43;2.97;;;0.60;;
53801;SDS011;39709;53.334;6.534;2023-02-03T02:57:13;9.38;;;1.00;;
53801;SDS011;39709;53.334;6.534;2023-02-03T02:59:42;7.23;;;0.63;;
53801;SDS011;39709;53.334;6.534;2023-02-03T03:02:09;4.82;;;0.65;;
53801;SDS011;39709;53.334;6.534;2023-02-03T03:04:35;4.53;;;0.75;;
53801;SDS011;39709;53.334;6.534;2023-02-03T03:07:07;5.30;;;0.63;;
53801;SDS011;39709;53.334;6.534;2023-02-03T03:09:53;3.92;;;0.60;;
53801;SDS011;39709;53.334;6.534;2023-02-03T03:12:23;6.40;;;0.90;;
53801;SDS011;39709;53.334;6.534;2023-02-03T03:14:54;4.82;;;0.80;;
53801;SDS011;39709;53.334;6.534;2023-02-03T03:17:29;8.65;;;0.77;;
53801;SDS011;39709;53.334;6.534;2023-02-03T03:20:00;4.05;;;0.75;;
53801;SDS011;39709;53.334;6.534;2023-02-03T03:22:34;2.25;;;0.60;;
53801;SDS011;39709;53.334;6.534;2023-02-03T03:25:08;6.43;;;0.90;;
53801;SDS011;39709;53.334;6.534;2023-02-03T03:27:41;6.35;;;0.98;;
53801;SDS011;39709;53.334;6.534;2023-02-03T03:32:47;5.05;;;0.93;;
53801;SDS011;39709;53.334;6.534;2023-02-03T03:35:14;2.33;;;0.55;;
53801;SDS011;39709;53.334;6.534;2023-02-03T03:37:42;3.43;;;0.70;;
53801;SDS011;39709;53.334;6.534;2023-02-03T03:42:53;7.47;;;1.25;;
53801;SDS011;39709;53.334;6.534;2023-02-03T03:48:07;7.05;;;0.80;;
53801;SDS011;39709;53.334;6.534;2023-02-03T03:50:42;5.97;;;0.80;;
53801;SDS011;39709;53.334;6.534;2023-02-03T03:53:30;4.95;;;0.65;;
53801;SDS011;39709;53.334;6.534;2023-02-03T03:55:59;6.47;;;1.05;;
53801;SDS011;39709;53.334;6.534;2023-02-03T03:58:28;5.82;;;0.75;;
53801;SDS011;39709;53.334;6.534;2023-02-03T04:00:57;5.30;;;0.57;;
53801;SDS011;39709;53.334;6.534;2023-02-03T04:03:48;5.57;;;0.80;;
53801;SDS011;39709;53.334;6.534;2023-02-03T04:06:14;4.18;;;0.70;;
53801;SDS011;39709;53.334;6.534;2023-02-03T04:08:39;3.50;;;0.70;;
53801;SDS011;39709;53.334;6.534;2023-02-03T04:11:05;4.90;;;0.97;;
53801;SDS011;39709;53.334;6.534;2023-02-03T04:13:31;6.78;;;0.85;;
53801;SDS011;39709;53.334;6.534;2023-02-03T04:15:57;6.97;;;0.85;;
53801;SDS011;39709;53.334;6.534;2023-02-03T04:18:23;4.27;;;0.70;;
53801;SDS011;39709;53.334;6.534;2023-02-03T04:20:48;6.95;;;1.02;;
53801;SDS011;39709;53.334;6.534;2023-02-03T04:23:14;5.40;;;1.20;;
53801;SDS011;39709;53.334;6.534;2023-02-03T04:25:40;4.23;;;0.70;;
53801;SDS011;39709;53.334;6.534;2023-02-03T04:28:06;5.47;;;1.00;;
53801;SDS011;39709;53.334;6.534;2023-02-03T04:30:31;8.55;;;0.90;;
53801;SDS011;39709;53.334;6.534;2023-02-03T04:32:57;5.73;;;0.90;;
53801;SDS011;39709;53.334;6.534;2023-02-03T04:35:23;7.60;;;1.20;;
53801;SDS011;39709;53.334;6.534;2023-02-03T04:37:49;4.70;;;0.65;;
53801;SDS011;39709;53.334;6.534;2023-02-03T04:40:14;6.03;;;0.97;;
53801;SDS011;39709;53.334;6.534;2023-02-03T04:42:40;7.13;;;1.25;;
53801;SDS011;39709;53.334;6.534;2023-02-03T04:45:07;6.05;;;0.70;;
53801;SDS011;39709;53.334;6.534;2023-02-03T04:47:34;5.57;;;0.90;;
53801;SDS011;39709;53.334;6.534;2023-02-03T04:50:00;5.28;;;0.88;;
53801;SDS011;39709;53.334;6.534;2023-02-03T04:52:26;4.35;;;0.77;;
53801;SDS011;39709;53.334;6.534;2023-02-03T04:54:52;6.35;;;0.80;;
53801;SDS011;39709;53.334;6.534;2023-02-03T04:57:18;9.30;;;1.00;;
53801;SDS011;39709;53.334;6.534;2023-02-03T04:59:44;6.15;;;0.77;;
53801;SDS011;39709;53.334;6.534;2023-02-03T05:02:09;9.53;;;1.10;;
53801;SDS011;39709;53.334;6.534;2023-02-03T05:04:35;4.82;;;0.60;;
53801;SDS011;39709;53.334;6.534;2023-02-03T05:07:01;5.27;;;0.80;;
53801;SDS011;39709;53.334;6.534;2023-02-03T05:09:26;6.82;;;1.10;;
53801;SDS011;39709;53.334;6.534;2023-02-03T05:11:52;6.27;;;1.07;;
53801;SDS011;39709;53.334;6.534;2023-02-03T05:14:18;5.50;;;1.08;;
53801;SDS011;39709;53.334;6.534;2023-02-03T05:16:45;6.00;;;1.20;;
53801;SDS011;39709;53.334;6.534;2023-02-03T05:19:11;7.20;;;1.25;;
53801;SDS011;39709;53.334;6.534;2023-02-03T05:21:37;4.03;;;0.87;;
53801;SDS011;39709;53.334;6.534;2023-02-03T05:24:02;6.25;;;1.20;;
53801;SDS011;39709;53.334;6.534;2023-02-03T05:26:31;4.55;;;0.77;;
53801;SDS011;39709;53.334;6.534;2023-02-03T05:28:58;9.48;;;1.35;;
53801;SDS011;39709;53.334;6.534;2023-02-03T05:31:23;7.67;;;1.37;;
53801;SDS011;39709;53.334;6.534;2023-02-03T05:33:49;5.97;;;1.20;;
53801;SDS011;39709;53.334;6.534;2023-02-03T05:36:14;8.75;;;1.27;;
53801;SDS011;39709;53.334;6.534;2023-02-03T05:38:40;6.47;;;1.10;;
53801;SDS011;39709;53.334;6.534;2023-02-03T05:41:06;7.57;;;1.17;;
53801;SDS011;39709;53.334;6.534;2023-02-03T05:43:53;6.93;;;1.02;;
53801;SDS011;39709;53.334;6.534;2023-02-03T05:46:19;7.60;;;1.20;;
53801;SDS011;39709;53.334;6.534;2023-02-03T05:48:44;7.40;;;0.90;;
53801;SDS011;39709;53.334;6.534;2023-02-03T05:51:10;6.27;;;1.20;;
53801;SDS011;39709;53.334;6.534;2023-02-03T05:53:36;7.28;;;0.90;;
53801;SDS011;39709;53.334;6.534;2023-02-03T05:56:01;7.87;;;1.10;;
53801;SDS011;39709;53.334;6.534;2023-02-03T05:58:27;6.88;;;1.10;;
53801;SDS011;39709;53.334;6.534;2023-02-03T06:00:53;7.27;;;1.50;;
53801;SDS011;39709;53.334;6.534;2023-02-03T06:03:18;8.23;;;1.20;;
53801;SDS011;39709;53.334;6.534;2023-02-03T06:05:44;8.80;;;1.35;;
53801;SDS011;39709;53.334;6.534;2023-02-03T06:08:10;7.50;;;1.30;;
53801;SDS011;39709;53.334;6.534;2023-02-03T06:10:36;4.88;;;0.88;;
53801;SDS011;39709;53.334;6.534;2023-02-03T06:13:08;8.63;;;1.08;;
53801;SDS011;39709;53.334;6.534;2023-02-03T06:15:35;7.57;;;1.20;;
53801;SDS011;39709;53.334;6.534;2023-02-03T06:18:01;5.47;;;0.80;;
53801;SDS011;39709;53.334;6.534;2023-02-03T06:20:26;8.20;;;1.33;;
53801;SDS011;39709;53.334;6.534;2023-02-03T06:22:52;9.20;;;1.57;;
53801;SDS011;39709;53.334;6.534;2023-02-03T06:25:18;8.70;;;1.37;;
53801;SDS011;39709;53.334;6.534;2023-02-03T06:27:43;7.90;;;1.40;;
53801;SDS011;39709;53.334;6.534;2023-02-03T06:30:09;8.20;;;1.43;;
53801;SDS011;39709;53.334;6.534;2023-02-03T06:32:35;7.25;;;0.90;;
53801;SDS011;39709;53.334;6.534;2023-02-03T06:35:01;6.40;;;1.17;;
53801;SDS011;39709;53.334;6.534;2023-02-03T06:37:27;5.57;;;0.87;;
53801;SDS011;39709;53.334;6.534;2023-02-03T06:39:53;6.75;;;1.50;;
53801;SDS011;39709;53.334;6.534;2023-02-03T06:42:19;9.27;;;1.90;;
53801;SDS011;39709;53.334;6.534;2023-02-03T06:44:44;7.57;;;1.48;;
53801;SDS011;39709;53.334;6.534;2023-02-03T06:47:10;6.23;;;1.20;;
53801;SDS011;39709;53.334;6.534;2023-02-03T06:49:35;8.83;;;1.30;;
53801;SDS011;39709;53.334;6.534;2023-02-03T06:52:01;9.80;;;1.60;;
53801;SDS011;39709;53.334;6.534;2023-02-03T06:54:27;10.30;;;1.47;;
53801;SDS011;39709;53.334;6.534;2023-02-03T06:56:53;7.97;;;1.15;;
53801;SDS011;39709;53.334;6.534;2023-02-03T06:59:18;8.10;;;1.47;;
53801;SDS011;39709;53.334;6.534;2023-02-03T07:01:44;9.40;;;1.50;;
53801;SDS011;39709;53.334;6.534;2023-02-03T07:04:09;11.80;;;1.67;;
53801;SDS011;39709;53.334;6.534;2023-02-03T07:06:35;8.05;;;1.30;;
53801;SDS011;39709;53.334;6.534;2023-02-03T07:09:02;7.27;;;1.40;;
53801;SDS011;39709;53.334;6.534;2023-02-03T07:11:29;8.02;;;0.82;;
53801;SDS011;39709;53.334;6.534;2023-02-03T07:13:56;7.43;;;1.38;;
53801;SDS011;39709;53.334;6.534;2023-02-03T07:16:22;11.70;;;1.50;;
53801;SDS011;39709;53.334;6.534;2023-02-03T07:18:48;8.02;;;1.20;;
53801;SDS011;39709;53.334;6.534;2023-02-03T07:21:14;8.95;;;1.10;;
53801;SDS011;39709;53.334;6.534;2023-02-03T07:23:40;7.47;;;1.15;;
53801;SDS011;39709;53.334;6.534;2023-02-03T07:26:06;6.97;;;1.20;;
53801;SDS011;39709;53.334;6.534;2023-02-03T07:28:34;9.70;;;1.60;;
53801;SDS011;39709;53.334;6.534;2023-02-03T07:31:00;6.75;;;1.38;;
53801;SDS011;39709;53.334;6.534;2023-02-03T07:33:28;7.20;;;1.70;;
53801;SDS011;39709;53.334;6.534;2023-02-03T07:35:55;8.55;;;1.42;;
53801;SDS011;39709;53.334;6.534;2023-02-03T07:38:23;12.93;;;2.03;;
53801;SDS011;39709;53.334;6.534;2023-02-03T07:40:50;12.90;;;2.15;;
53801;SDS011;39709;53.334;6.534;2023-02-03T07:43:15;9.67;;;1.83;;
53801;SDS011;39709;53.334;6.534;2023-02-03T07:45:41;10.77;;;1.98;;
53801;SDS011;39709;53.334;6.534;2023-02-03T07:48:07;7.77;;;1.30;;
53801;SDS011;39709;53.334;6.534;2023-02-03T07:50:32;7.30;;;1.40;;
53801;SDS011;39709;53.334;6.534;2023-02-03T07:52:58;9.43;;;1.63;;
53801;SDS011;39709;53.334;6.534;2023-02-03T07:55:25;7.10;;;1.23;;
53801;SDS011;39709;53.334;6.534;2023-02-03T07:57:54;10.50;;;1.67;;
53801;SDS011;39709;53.334;6.534;2023-02-03T08:00:21;13.57;;;1.70;;
53801;SDS011;39709;53.334;6.534;2023-02-03T08:02:47;13.23;;;2.30;;
53801;SDS011;39709;53.334;6.534;2023-02-03T08:05:13;9.07;;;1.60;;
53801;SDS011;39709;53.334;6.534;2023-02-03T08:07:40;13.10;;;2.30;;
53801;SDS011;39709;53.334;6.534;2023-02-03T08:10:06;11.48;;;1.90;;
53801;SDS011;39709;53.334;6.534;2023-02-03T08:12:33;7.55;;;1.50;;
53801;SDS011;39709;53.334;6.534;2023-02-03T08:14:59;14.57;;;2.30;;
53801;SDS011;39709;53.334;6.534;2023-02-03T08:17:25;9.80;;;1.70;;
53801;SDS011;39709;53.334;6.534;2023-02-03T08:19:51;7.63;;;1.75;;
53801;SDS011;39709;53.334;6.534;2023-02-03T08:22:16;12.17;;;2.27;;
53801;SDS011;39709;53.334;6.534;2023-02-03T08:24:43;9.00;;;1.90;;
53801;SDS011;39709;53.334;6.534;2023-02-03T08:27:14;12.43;;;2.67;;
53801;SDS011;39709;53.334;6.534;2023-02-03T08:29:42;8.00;;;1.67;;
53801;SDS011;39709;53.334;6.534;2023-02-03T08:32:13;8.80;;;1.60;;
53801;SDS011;39709;53.334;6.534;2023-02-03T08:34:46;12.65;;;1.55;;
53801;SDS011;39709;53.334;6.534;2023-02-03T08:37:12;12.40;;;2.40;;
53801;SDS011;39709;53.334;6.534;2023-02-03T08:39:39;15.43;;;2.50;;
53801;SDS011;39709;53.334;6.534;2023-02-03T08:42:05;10.67;;;1.97;;
53801;SDS011;39709;53.334;6.534;2023-02-03T08:44:31;23.42;;;3.92;;
53801;SDS011;39709;53.334;6.534;2023-02-03T08:46:58;17.08;;;2.30;;
53801;SDS011;39709;53.334;6.534;2023-02-03T08:49:25;12.60;;;2.10;;
53801;SDS011;39709;53.334;6.534;2023-02-03T08:51:52;20.35;;;3.17;;
53801;SDS011;39709;53.334;6.534;2023-02-03T08:54:19;18.87;;;2.73;;
53801;SDS011;39709;53.334;6.534;2023-02-03T08:56:46;14.80;;;2.50;;
53801;SDS011;39709;53.334;6.534;2023-02-03T08:59:12;13.20;;;1.35;;
53801;SDS011;39709;53.334;6.534;2023-02-03T09:01:39;16.10;;;2.22;;
53801;SDS011;39709;53.334;6.534;2023-02-03T09:04:05;17.63;;;2.67;;
53801;SDS011;39709;53.334;6.534;2023-02-03T09:06:33;16.77;;;2.73;;
53801;SDS011;39709;53.334;6.534;2023-02-03T09:08:59;17.98;;;2.00;;
53801;SDS011;39709;53.334;6.534;2023-02-03T09:11:25;20.98;;;2.80;;
53801;SDS011;39709;53.334;6.534;2023-02-03T09:13:51;9.18;;;1.63;;
53801;SDS011;39709;53.334;6.534;2023-02-03T09:16:17;12.63;;;1.80;;
53801;SDS011;39709;53.334;6.534;2023-02-03T09:18:45;10.80;;;1.80;;
53801;SDS011;39709;53.334;6.534;2023-02-03T09:21:12;12.90;;;2.22;;
53801;SDS011;39709;53.334;6.534;2023-02-03T09:23:40;11.20;;;1.90;;
53801;SDS011;39709;53.334;6.534;2023-02-03T09:26:07;12.98;;;1.80;;
53801;SDS011;39709;53.334;6.534;2023-02-03T09:28:35;24.55;;;3.25;;
53801;SDS011;39709;53.334;6.534;2023-02-03T09:31:05;13.10;;;2.03;;
53801;SDS011;39709;53.334;6.534;2023-02-03T09:33:32;17.70;;;2.53;;
53801;SDS011;39709;53.334;6.534;2023-02-03T09:35:58;13.25;;;2.15;;
53801;SDS011;39709;53.334;6.534;2023-02-03T09:38:24;19.10;;;2.38;;
53801;SDS011;39709;53.334;6.534;2023-02-03T09:40:52;21.53;;;2.57;;
53801;SDS011;39709;53.334;6.534;2023-02-03T09:43:40;17.50;;;3.28;;
53801;SDS011;39709;53.334;6.534;2023-02-03T09:46:12;13.00;;;2.47;;
53801;SDS011;39709;53.334;6.534;2023-02-03T09:48:47;13.13;;;1.60;;
53801;SDS011;39709;53.334;6.534;2023-02-03T09:51:36;13.30;;;2.40;;
53801;SDS011;39709;53.334;6.534;2023-02-03T09:56:54;21.30;;;3.40;;
53801;SDS011;39709;53.334;6.534;2023-02-03T09:59:23;22.02;;;3.22;;
53801;SDS011;39709;53.334;6.534;2023-02-03T10:04:38;20.50;;;2.78;;
53801;SDS011;39709;53.334;6.534;2023-02-03T10:09:49;31.25;;;4.43;;
53801;SDS011;39709;53.334;6.534;2023-02-03T10:12:24;22.73;;;3.15;;
53801;SDS011;39709;53.334;6.534;2023-02-03T10:18:00;18.77;;;2.38;;
53801;SDS011;39709;53.334;6.534;2023-02-03T10:20:39;23.45;;;3.15;;
53801;SDS011;39709;53.334;6.534;2023-02-03T10:23:12;11.70;;;1.50;;
53801;SDS011;39709;53.334;6.534;2023-02-03T10:25:43;17.38;;;2.30;;
53801;SDS011;39709;53.334;6.534;2023-02-03T10:28:19;22.00;;;2.73;;
53801;SDS011;39709;53.334;6.534;2023-02-03T10:30:56;27.60;;;4.13;;
53801;SDS011;39709;53.334;6.534;2023-02-03T10:33:24;18.30;;;2.72;;
53801;SDS011;39709;53.334;6.534;2023-02-03T10:39:00;28.88;;;2.88;;
53801;SDS011;39709;53.334;6.534;2023-02-03T10:41:36;28.07;;;4.17;;
53801;SDS011;39709;53.334;6.534;2023-02-03T10:44:02;11.25;;;1.83;;
53801;SDS011;39709;53.334;6.534;2023-02-03T10:46:33;15.77;;;2.53;;
53801;SDS011;39709;53.334;6.534;2023-02-03T10:49:01;34.88;;;4.53;;
53801;SDS011;39709;53.334;6.534;2023-02-03T10:51:28;19.60;;;3.57;;
53801;SDS011;39709;53.334;6.534;2023-02-03T10:53:59;17.55;;;3.22;;
53801;SDS011;39709;53.334;6.534;2023-02-03T10:56:26;18.35;;;2.33;;
53801;SDS011;39709;53.334;6.534;2023-02-03T10:58:56;14.65;;;1.90;;
53801;SDS011;39709;53.334;6.534;2023-02-03T11:01:25;26.20;;;2.60;;
53801;SDS011;39709;53.334;6.534;2023-02-03T11:04:22;28.30;;;3.30;;
53801;SDS011;39709;53.334;6.534;2023-02-03T11:07:03;28.73;;;3.88;;
53801;SDS011;39709;53.334;6.534;2023-02-03T11:09:38;31.60;;;4.75;;
53801;SDS011;39709;53.334;6.534;2023-02-03T11:12:16;26.02;;;3.83;;
53801;SDS011;39709;53.334;6.534;2023-02-03T11:14:50;23.73;;;4.28;;
53801;SDS011;39709;53.334;6.534;2023-02-03T11:17:24;27.73;;;4.03;;
53801;SDS011;39709;53.334;6.534;2023-02-03T11:19:58;32.72;;;3.85;;
53801;SDS011;39709;53.334;6.534;2023-02-03T11:22:37;30.38;;;4.13;;
53801;SDS011;39709;53.334;6.534;2023-02-03T11:25:04;21.02;;;2.75;;
53801;SDS011;39709;53.334;6.534;2023-02-03T11:27:48;24.25;;;3.92;;
53801;SDS011;39709;53.334;6.534;2023-02-03T11:30:19;32.83;;;5.03;;
53801;SDS011;39709;53.334;6.534;2023-02-03T11:32:49;27.15;;;3.63;;
53801;SDS011;39709;53.334;6.534;2023-02-03T11:35:21;21.83;;;2.97;;
53801;SDS011;39709;53.334;6.534;2023-02-03T11:37:52;28.27;;;4.00;;
53801;SDS011;39709;53.334;6.534;2023-02-03T11:40:23;33.17;;;4.13;;
53801;SDS011;39709;53.334;6.534;2023-02-03T11:43:03;23.63;;;3.55;;
53801;SDS011;39709;53.334;6.534;2023-02-03T11:45:38;32.63;;;4.68;;
53801;SDS011;39709;53.334;6.534;2023-02-03T11:48:13;29.88;;;3.17;;
53801;SDS011;39709;53.334;6.534;2023-02-03T11:53:25;19.60;;;2.20;;
53801;SDS011;39709;53.334;6.534;2023-02-03T12:07:44;19.83;;;3.50;;
53801;SDS011;39709;53.334;6.534;2023-02-03T12:10:42;27.85;;;3.25;;
53801;SDS011;39709;53.334;6.534;2023-02-03T12:27:02;23.13;;;3.10;;
53801;SDS011;39709;53.334;6.534;2023-02-03T12:29:34;20.15;;;2.53;;
53801;SDS011;39709;53.334;6.534;2023-02-03T12:34:54;21.63;;;2.33;;
53801;SDS011;39709;53.334;6.534;2023-02-03T12:40:34;20.98;;;2.97;;
53801;SDS011;39709;53.334;6.534;2023-02-03T12:43:22;18.55;;;2.88;;
53801;SDS011;39709;53.334;6.534;2023-02-03T12:46:14;33.25;;;3.42;;
53801;SDS011;39709;53.334;6.534;2023-02-03T12:51:39;25.90;;;3.35;;
53801;SDS011;39709;53.334;6.534;2023-02-03T12:54:24;30.85;;;4.55;;
53801;SDS011;39709;53.334;6.534;2023-02-03T12:59:48;24.63;;;3.58;;
53801;SDS011;39709;53.334;6.534;2023-02-03T13:02:26;28.83;;;4.17;;
53801;SDS011;39709;53.334;6.534;2023-02-03T13:05:02;23.58;;;3.17;;
53801;SDS011;39709;53.334;6.534;2023-02-03T13:07:42;26.95;;;4.28;;
53801;SDS011;39709;53.334;6.534;2023-02-03T13:10:33;23.63;;;3.35;;
53801;SDS011;39709;53.334;6.534;2023-02-03T13:13:06;30.85;;;3.95;;
53801;SDS011;39709;53.334;6.534;2023-02-03T13:15:38;29.77;;;3.83;;
53801;SDS011;39709;53.334;6.534;2023-02-03T13:20:55;24.65;;;3.42;;
53801;SDS011;39709;53.334;6.534;2023-02-03T13:23:21;22.00;;;3.65;;
53801;SDS011;39709;53.334;6.534;2023-02-03T13:25:51;24.27;;;3.13;;
53801;SDS011;39709;53.334;6.534;2023-02-03T13:31:02;23.02;;;3.63;;
53801;SDS011;39709;53.334;6.534;2023-02-03T13:33:59;22.63;;;2.80;;
53801;SDS011;39709;53.334;6.534;2023-02-03T13:44:48;26.35;;;3.53;;
53801;SDS011;39709;53.334;6.534;2023-02-03T13:47:20;35.20;;;4.20;;
53801;SDS011;39709;53.334;6.534;2023-02-03T13:49:51;34.65;;;4.22;;
53801;SDS011;39709;53.334;6.534;2023-02-03T13:53:03;16.15;;;3.30;;
53801;SDS011;39709;53.334;6.534;2023-02-03T13:55:28;35.85;;;4.50;;
53801;SDS011;39709;53.334;6.534;2023-02-03T13:57:57;25.25;;;3.40;;
53801;SDS011;39709;53.334;6.534;2023-02-03T14:05:50;30.27;;;4.40;;
53801;SDS011;39709;53.334;6.534;2023-02-03T14:16:47;26.25;;;3.15;;
53801;SDS011;39709;53.334;6.534;2023-02-03T14:21:47;25.00;;;4.30;;
53801;SDS011;39709;53.334;6.534;2023-02-03T14:24:16;31.42;;;3.45;;
53801;SDS011;39709;53.334;6.534;2023-02-03T14:29:29;27.70;;;2.85;;
53801;SDS011;39709;53.334;6.534;2023-02-03T14:31:57;21.83;;;2.75;;
53801;SDS011;39709;53.334;6.534;2023-02-03T14:34:37;21.07;;;2.87;;
53801;SDS011;39709;53.334;6.534;2023-02-03T14:48:06;21.40;;;3.00;;
53801;SDS011;39709;53.334;6.534;2023-02-03T14:54:00;25.52;;;3.58;;
53801;SDS011;39709;53.334;6.534;2023-02-03T14:57:09;29.42;;;3.35;;
53801;SDS011;39709;53.334;6.534;2023-02-03T15:02:20;22.17;;;2.53;;
53801;SDS011;39709;53.334;6.534;2023-02-03T15:04:50;17.23;;;3.03;;
53801;SDS011;39709;53.334;6.534;2023-02-03T15:07:36;21.85;;;3.67;;
53801;SDS011;39709;53.334;6.534;2023-02-03T15:12:52;23.38;;;2.25;;
53801;SDS011;39709;53.334;6.534;2023-02-03T15:15:24;18.70;;;2.03;;
53801;SDS011;39709;53.334;6.534;2023-02-03T15:17:58;23.50;;;3.13;;
53801;SDS011;39709;53.334;6.534;2023-02-03T15:20:44;21.30;;;2.85;;
53801;SDS011;39709;53.334;6.534;2023-02-03T15:23:20;26.80;;;3.17;;
53801;SDS011;39709;53.334;6.534;2023-02-03T15:25:52;18.38;;;2.67;;
53801;SDS011;39709;53.334;6.534;2023-02-03T15:28:23;16.60;;;2.97;;
53801;SDS011;39709;53.334;6.534;2023-02-03T15:31:08;25.55;;;2.80;;
53801;SDS011;39709;53.334;6.534;2023-02-03T15:34:16;27.35;;;2.70;;
53801;SDS011;39709;53.334;6.534;2023-02-03T15:36:51;23.23;;;3.33;;
53801;SDS011;39709;53.334;6.534;2023-02-03T15:40:20;25.65;;;2.47;;
53801;SDS011;39709;53.334;6.534;2023-02-03T15:42:45;20.50;;;2.63;;
53801;SDS011;39709;53.334;6.534;2023-02-03T15:48:00;19.10;;;2.00;;
53801;SDS011;39709;53.334;6.534;2023-02-03T15:50:36;21.25;;;3.13;;
53801;SDS011;39709;53.334;6.534;2023-02-03T15:53:13;21.05;;;1.95;;
53801;SDS011;39709;53.334;6.534;2023-02-03T15:55:49;20.33;;;2.00;;
53801;SDS011;39709;53.334;6.534;2023-02-03T15:58:25;26.13;;;3.60;;
53801;SDS011;39709;53.334;6.534;2023-02-03T16:00:57;22.73;;;3.28;;
53801;SDS011;39709;53.334;6.534;2023-02-03T16:03:32;20.10;;;2.03;;
53801;SDS011;39709;53.334;6.534;2023-02-03T16:06:16;20.17;;;3.80;;
53801;SDS011;39709;53.334;6.534;2023-02-03T16:08:47;24.37;;;3.17;;
53801;SDS011;39709;53.334;6.534;2023-02-03T16:11:29;23.85;;;3.17;;
53801;SDS011;39709;53.334;6.534;2023-02-03T16:14:00;32.60;;;3.97;;
53801;SDS011;39709;53.334;6.534;2023-02-03T16:16:35;28.35;;;2.55;;
53801;SDS011;39709;53.334;6.534;2023-02-03T16:19:11;25.52;;;3.53;;
53801;SDS011;39709;53.334;6.534;2023-02-03T16:27:20;26.80;;;2.85;;
53801;SDS011;39709;53.334;6.534;2023-02-03T16:29:46;23.92;;;3.38;;
53801;SDS011;39709;53.334;6.534;2023-02-03T16:32:30;30.73;;;3.35;;
53801;SDS011;39709;53.334;6.534;2023-02-03T16:35:14;25.37;;;2.53;;
53801;SDS011;39709;53.334;6.534;2023-02-03T16:38:15;29.05;;;4.85;;
53801;SDS011;39709;53.334;6.534;2023-02-03T16:41:00;27.20;;;3.50;;
53801;SDS011;39709;53.334;6.534;2023-02-03T16:43:53;22.17;;;3.22;;
53801;SDS011;39709;53.334;6.534;2023-02-03T16:46:38;18.85;;;2.92;;
53801;SDS011;39709;53.334;6.534;2023-02-03T16:49:22;21.93;;;3.40;;
53801;SDS011;39709;53.334;6.534;2023-02-03T16:52:06;24.30;;;3.22;;
53801;SDS011;39709;53.334;6.534;2023-02-03T16:54:32;29.25;;;3.67;;
53801;SDS011;39709;53.334;6.534;2023-02-03T16:56:58;22.83;;;3.00;;
53801;SDS011;39709;53.334;6.534;2023-02-03T16:59:23;25.05;;;3.45;;
53801;SDS011;39709;53.334;6.534;2023-02-03T17:01:49;31.83;;;3.77;;
53801;SDS011;39709;53.334;6.534;2023-02-03T17:04:15;21.70;;;2.97;;
53801;SDS011;39709;53.334;6.534;2023-02-03T17:06:41;20.92;;;3.28;;
53801;SDS011;39709;53.334;6.534;2023-02-03T17:09:08;21.53;;;2.90;;
53801;SDS011;39709;53.334;6.534;2023-02-03T17:11:33;21.10;;;2.88;;
53801;SDS011;39709;53.334;6.534;2023-02-03T17:13:59;30.33;;;3.00;;
53801;SDS011;39709;53.334;6.534;2023-02-03T17:16:25;28.52;;;3.88;;
53801;SDS011;39709;53.334;6.534;2023-02-03T17:18:52;31.45;;;2.70;;
53801;SDS011;39709;53.334;6.534;2023-02-03T17:21:20;25.60;;;3.70;;
53801;SDS011;39709;53.334;6.534;2023-02-03T17:23:47;30.77;;;4.20;;
53801;SDS011;39709;53.334;6.534;2023-02-03T17:26:13;32.72;;;3.10;;